sensor_id;sensor_type;location;lat;lon;timestamp;pressure;altitude;pressure_sealevel;temperature;humidity
29909;BME280;36247;51.952;6.146;2023-05-20T00:00:26;102360.66;;;12.11;100.00
29909;BME280;36247;51.952;6.146;2023-05-20T00:02:51;102359.31;;;12.25;100.00
29909;BME280;36247;51.952;6.146;2023-05-20T00:05:18;102358.19;;;12.17;100.00
29909;BME280;36247;51.952;6.146;2023-05-20T00:07:43;102361.19;;;12.28;100.00
29909;BME280;36247;51.952;6.146;2023-05-20T00:10:09;102358.09;;;12.14;100.00
29909;BME280;36247;51.952;6.146;2023-05-20T00:12:37;102355.91;;;12.29;100.00
29909;BME280;36247;51.952;6.146;2023-05-20T00:15:04;102360.53;;;12.35;100.00
29909;BME280;36247;51.952;6.146;2023-05-20T00:17:31;102361.47;;;12.37;100.00
29909;BME280;36247;51.952;6.146;2023-05-20T00:19:56;102355.13;;;12.32;100.00
29909;BME280;36247;51.952;6.146;2023-05-20T00:22:21;102352.41;;;12.30;100.00
29909;BME280;36247;51.952;6.146;2023-05-20T00:24:47;102354.06;;;12.27;100.00
29909;BME280;36247;51.952;6.146;2023-05-20T00:27:13;102349.22;;;12.42;100.00
29909;BME280;36247;51.952;6.146;2023-05-20T00:29:38;102347.47;;;12.43;100.00
29909;BME280;36247;51.952;6.146;2023-05-20T00:32:08;102348.16;;;12.37;100.00
29909;BME280;36247;51.952;6.146;2023-05-20T00:34:34;102349.22;;;12.42;100.00
29909;BME280;36247;51.952;6.146;2023-05-20T00:37:00;102350.25;;;12.47;100.00
29909;BME280;36247;51.952;6.146;2023-05-20T00:39:26;102353.41;;;12.34;100.00
29909;BME280;36247;51.952;6.146;2023-05-20T00:41:51;102346.97;;;12.26;100.00
29909;BME280;36247;51.952;6.146;2023-05-20T00:44:18;102348.41;;;12.45;100.00
29909;BME280;36247;51.952;6.146;2023-05-20T00:46:45;102344.44;;;12.30;100.00
29909;BME280;36247;51.952;6.146;2023-05-20T00:49:12;102344.75;;;12.41;100.00
29909;BME280;36247;51.952;6.146;2023-05-20T00:51:38;102349.28;;;12.44;100.00
29909;BME280;36247;51.952;6.146;2023-05-20T00:54:05;102349.47;;;12.21;100.00
29909;BME280;36247;51.952;6.146;2023-05-20T00:56:31;102347.53;;;12.15;100.00
29909;BME280;36247;51.952;6.146;2023-05-20T00:58:57;102346.03;;;12.25;100.00
29909;BME280;36247;51.952;6.146;2023-05-20T01:01:22;102346.44;;;12.10;100.00
29909;BME280;36247;51.952;6.146;2023-05-20T01:03:48;102343.56;;;12.31;100.00
29909;BME280;36247;51.952;6.146;2023-05-20T01:06:13;102338.28;;;12.33;100.00
29909;BME280;36247;51.952;6.146;2023-05-20T01:08:39;102340.47;;;11.90;100.00
29909;BME280;36247;51.952;6.146;2023-05-20T01:11:18;102341.88;;;12.33;100.00
29909;BME280;36247;51.952;6.146;2023-05-20T01:13:50;102340.28;;;12.40;100.00
29909;BME280;36247;51.952;6.146;2023-05-20T01:16:19;102340.50;;;12.17;100.00
29909;BME280;36247;51.952;6.146;2023-05-20T01:18:47;102333.16;;;12.38;100.00
29909;BME280;36247;51.952;6.146;2023-05-20T01:21:14;102340.47;;;12.46;100.00
29909;BME280;36247;51.952;6.146;2023-05-20T01:23:42;102334.34;;;12.49;100.00
29909;BME280;36247;51.952;6.146;2023-05-20T01:26:08;102333.16;;;12.38;100.00
29909;BME280;36247;51.952;6.146;2023-05-20T01:28:38;102335.53;;;12.01;100.00
29909;BME280;36247;51.952;6.146;2023-05-20T01:31:13;102333.34;;;12.16;100.00
29909;BME280;36247;51.952;6.146;2023-05-20T01:33:40;102334.19;;;12.14;100.00
29909;BME280;36247;51.952;6.146;2023-05-20T01:36:07;102329.38;;;12.31;100.00
29909;BME280;36247;51.952;6.146;2023-05-20T01:38:35;102325.09;;;12.07;100.00
29909;BME280;36247;51.952;6.146;2023-05-20T01:41:01;102324.72;;;12.24;100.00
29909;BME280;36247;51.952;6.146;2023-05-20T01:43:31;102327.44;;;11.96;100.00
29909;BME280;36247;51.952;6.146;2023-05-20T01:45:57;102320.44;;;12.00;100.00
29909;BME280;36247;51.952;6.146;2023-05-20T01:48:22;102324.91;;;12.30;100.00
29909;BME280;36247;51.952;6.146;2023-05-20T01:50:48;102327.59;;;11.75;100.00
29909;BME280;36247;51.952;6.146;2023-05-20T01:53:15;102331.56;;;12.15;100.00
29909;BME280;36247;51.952;6.146;2023-05-20T01:55:41;102327.00;;;12.11;100.00
29909;BME280;36247;51.952;6.146;2023-05-20T01:58:06;102319.97;;;12.13;100.00
29909;BME280;36247;51.952;6.146;2023-05-20T02:00:32;102319.66;;;12.31;100.00
29909;BME280;36247;51.952;6.146;2023-05-20T02:03:00;102318.63;;;12.26;100.00
29909;BME280;36247;51.952;6.146;2023-05-20T02:05:27;102308.09;;;12.01;100.00
29909;BME280;36247;51.952;6.146;2023-05-20T02:07:52;102320.13;;;11.91;100.00
29909;BME280;36247;51.952;6.146;2023-05-20T02:10:19;102319.84;;;12.09;100.00
29909;BME280;36247;51.952;6.146;2023-05-20T02:12:44;102317.97;;;12.05;100.00
29909;BME280;36247;51.952;6.146;2023-05-20T02:15:12;102310.59;;;11.96;100.00
29909;BME280;36247;51.952;6.146;2023-05-20T02:17:39;102310.38;;;11.90;100.00
29909;BME280;36247;51.952;6.146;2023-05-20T02:20:08;102310.50;;;11.93;100.00
29909;BME280;36247;51.952;6.146;2023-05-20T02:22:35;102311.31;;;11.92;100.00
29909;BME280;36247;51.952;6.146;2023-05-20T02:25:02;102305.47;;;12.02;100.00
29909;BME280;36247;51.952;6.146;2023-05-20T02:27:27;102303.09;;;12.11;100.00
29909;BME280;36247;51.952;6.146;2023-05-20T02:29:53;102292.84;;;12.24;100.00
29909;BME280;36247;51.952;6.146;2023-05-20T02:32:18;102289.81;;;12.11;100.00
29909;BME280;36247;51.952;6.146;2023-05-20T02:34:45;102293.22;;;12.07;100.00
29909;BME280;36247;51.952;6.146;2023-05-20T02:37:11;102297.59;;;12.05;100.00
29909;BME280;36247;51.952;6.146;2023-05-20T02:39:37;102296.03;;;11.85;100.00
29909;BME280;36247;51.952;6.146;2023-05-20T02:42:03;102298.94;;;11.65;100.00
29909;BME280;36247;51.952;6.146;2023-05-20T02:44:30;102300.25;;;11.78;100.00
29909;BME280;36247;51.952;6.146;2023-05-20T02:46:56;102307.41;;;11.53;100.00
29909;BME280;36247;51.952;6.146;2023-05-20T02:49:21;102303.09;;;11.57;100.00
29909;BME280;36247;51.952;6.146;2023-05-20T02:51:47;102298.56;;;11.53;100.00
29909;BME280;36247;51.952;6.146;2023-05-20T02:54:13;102292.59;;;11.60;100.00
29909;BME280;36247;51.952;6.146;2023-05-20T02:56:39;102293.06;;;11.46;100.00
29909;BME280;36247;51.952;6.146;2023-05-20T02:59:05;102298.31;;;11.45;100.00
29909;BME280;36247;51.952;6.146;2023-05-20T03:01:32;102296.28;;;11.65;100.00
29909;BME280;36247;51.952;6.146;2023-05-20T03:04:02;102289.59;;;11.76;100.00
29909;BME280;36247;51.952;6.146;2023-05-20T03:06:30;102286.28;;;11.56;100.00
29909;BME280;36247;51.952;6.146;2023-05-20T03:08:57;102291.13;;;11.42;100.00
29909;BME280;36247;51.952;6.146;2023-05-20T03:11:23;102287.75;;;11.46;100.00
29909;BME280;36247;51.952;6.146;2023-05-20T03:13:49;102297.88;;;11.33;100.00
29909;BME280;36247;51.952;6.146;2023-05-20T03:16:16;102295.19;;;11.58;100.00
29909;BME280;36247;51.952;6.146;2023-05-20T03:18:44;102306.47;;;11.51;100.00
29909;BME280;36247;51.952;6.146;2023-05-20T03:21:10;102294.09;;;11.52;100.00
29909;BME280;36247;51.952;6.146;2023-05-20T03:23:36;102295.91;;;11.53;100.00
29909;BME280;36247;51.952;6.146;2023-05-20T03:26:02;102298.03;;;11.37;100.00
29909;BME280;36247;51.952;6.146;2023-05-20T03:28:27;102305.94;;;11.36;100.00
29909;BME280;36247;51.952;6.146;2023-05-20T03:30:53;102304.41;;;11.42;100.00
29909;BME280;36247;51.952;6.146;2023-05-20T03:33:20;102303.84;;;11.27;100.00
29909;BME280;36247;51.952;6.146;2023-05-20T03:35:46;102293.50;;;11.09;100.00
29909;BME280;36247;51.952;6.146;2023-05-20T03:38:13;102300.78;;;11.15;100.00
29909;BME280;36247;51.952;6.146;2023-05-20T03:40:39;102302.75;;;11.20;100.00
29909;BME280;36247;51.952;6.146;2023-05-20T03:43:06;102293.91;;;11.20;100.00
29909;BME280;36247;51.952;6.146;2023-05-20T03:45:32;102303.28;;;11.10;100.00
29909;BME280;36247;51.952;6.146;2023-05-20T03:48:06;102300.59;;;11.08;100.00
29909;BME280;36247;51.952;6.146;2023-05-20T03:50:34;102305.66;;;11.02;100.00
29909;BME280;36247;51.952;6.146;2023-05-20T03:53:00;102305.16;;;11.13;100.00
29909;BME280;36247;51.952;6.146;2023-05-20T03:55:28;102305.00;;;10.84;100.00
29909;BME280;36247;51.952;6.146;2023-05-20T03:57:54;102296.81;;;11.02;100.00
29909;BME280;36247;51.952;6.146;2023-05-20T04:00:20;102303.81;;;10.75;100.00
29909;BME280;36247;51.952;6.146;2023-05-20T04:02:47;102307.69;;;11.09;100.00
29909;BME280;36247;51.952;6.146;2023-05-20T04:05:17;102304.28;;;11.14;100.00
29909;BME280;36247;51.952;6.146;2023-05-20T04:07:44;102305.66;;;11.02;100.00
29909;BME280;36247;51.952;6.146;2023-05-20T04:10:12;102304.84;;;11.03;100.00
29909;BME280;36247;51.952;6.146;2023-05-20T04:12:37;102307.38;;;11.00;100.00
29909;BME280;36247;51.952;6.146;2023-05-20T04:15:06;102315.19;;;10.97;100.00
29909;BME280;36247;51.952;6.146;2023-05-20T04:17:40;102311.88;;;11.03;100.00
29909;BME280;36247;51.952;6.146;2023-05-20T04:20:07;102310.03;;;11.26;100.00
29909;BME280;36247;51.952;6.146;2023-05-20T04:22:35;102319.34;;;10.89;100.00
29909;BME280;36247;51.952;6.146;2023-05-20T04:25:01;102311.50;;;10.92;100.00
29909;BME280;36247;51.952;6.146;2023-05-20T04:27:32;102307.81;;;11.13;100.00
29909;BME280;36247;51.952;6.146;2023-05-20T04:30:06;102312.03;;;11.07;100.00
29909;BME280;36247;51.952;6.146;2023-05-20T04:32:35;102309.72;;;10.92;100.00
29909;BME280;36247;51.952;6.146;2023-05-20T04:35:00;102310.19;;;10.81;100.00
29909;BME280;36247;51.952;6.146;2023-05-20T04:37:27;102310.63;;;10.69;100.00
29909;BME280;36247;51.952;6.146;2023-05-20T04:39:53;102312.41;;;10.68;100.00
29909;BME280;36247;51.952;6.146;2023-05-20T04:42:19;102311.09;;;10.81;100.00
29909;BME280;36247;51.952;6.146;2023-05-20T04:44:47;102312.94;;;10.84;100.00
29909;BME280;36247;51.952;6.146;2023-05-20T04:47:14;102316.97;;;10.97;100.00
29909;BME280;36247;51.952;6.146;2023-05-20T04:49:40;102312.53;;;11.21;100.00
29909;BME280;36247;51.952;6.146;2023-05-20T04:52:07;102311.56;;;11.19;100.00
29909;BME280;36247;51.952;6.146;2023-05-20T04:54:32;102315.28;;;11.24;100.00
29909;BME280;36247;51.952;6.146;2023-05-20T04:56:58;102312.06;;;11.33;100.00
29909;BME280;36247;51.952;6.146;2023-05-20T04:59:24;102308.59;;;11.10;100.00
29909;BME280;36247;51.952;6.146;2023-05-20T05:01:49;102307.84;;;11.14;100.00
29909;BME280;36247;51.952;6.146;2023-05-20T05:04:15;102309.31;;;11.30;100.00
29909;BME280;36247;51.952;6.146;2023-05-20T05:06:41;102315.84;;;11.41;100.00
29909;BME280;36247;51.952;6.146;2023-05-20T05:09:09;102304.31;;;11.39;100.00
29909;BME280;36247;51.952;6.146;2023-05-20T05:11:37;102310.75;;;11.47;100.00
29909;BME280;36247;51.952;6.146;2023-05-20T05:14:07;102300.19;;;11.49;100.00
29909;BME280;36247;51.952;6.146;2023-05-20T05:16:35;102307.06;;;11.70;100.00
29909;BME280;36247;51.952;6.146;2023-05-20T05:19:01;102299.06;;;11.68;100.00
29909;BME280;36247;51.952;6.146;2023-05-20T05:21:31;102305.31;;;11.70;100.00
29909;BME280;36247;51.952;6.146;2023-05-20T05:23:56;102289.78;;;11.82;100.00
29909;BME280;36247;51.952;6.146;2023-05-20T05:26:22;102299.97;;;11.96;100.00
29909;BME280;36247;51.952;6.146;2023-05-20T05:28:48;102293.13;;;12.04;100.00
29909;BME280;36247;51.952;6.146;2023-05-20T05:31:13;102301.34;;;12.12;100.00
29909;BME280;36247;51.952;6.146;2023-05-20T05:33:39;102289.91;;;12.14;100.00
29909;BME280;36247;51.952;6.146;2023-05-20T05:36:06;102292.00;;;12.25;100.00
29909;BME280;36247;51.952;6.146;2023-05-20T05:38:32;102284.00;;;12.23;100.00
29909;BME280;36247;51.952;6.146;2023-05-20T05:40:58;102289.00;;;12.43;100.00
29909;BME280;36247;51.952;6.146;2023-05-20T05:43:24;102288.44;;;12.55;100.00
29909;BME280;36247;51.952;6.146;2023-05-20T05:45:50;102287.59;;;12.56;100.00
29909;BME280;36247;51.952;6.146;2023-05-20T05:48:18;102287.09;;;12.69;100.00
29909;BME280;36247;51.952;6.146;2023-05-20T05:50:44;102286.16;;;12.68;100.00
29909;BME280;36247;51.952;6.146;2023-05-20T05:53:11;102288.88;;;12.70;100.00
29909;BME280;36247;51.952;6.146;2023-05-20T05:55:39;102287.38;;;12.80;100.00
29909;BME280;36247;51.952;6.146;2023-05-20T05:58:06;102288.47;;;12.88;100.00
29909;BME280;36247;51.952;6.146;2023-05-20T06:00:35;102291.31;;;12.94;100.00
29909;BME280;36247;51.952;6.146;2023-05-20T06:03:01;102284.03;;;13.20;100.00
29909;BME280;36247;51.952;6.146;2023-05-20T06:05:31;102282.44;;;13.27;100.00
29909;BME280;36247;51.952;6.146;2023-05-20T06:07:57;102282.44;;;13.27;100.00
29909;BME280;36247;51.952;6.146;2023-05-20T06:10:24;102282.91;;;13.44;100.00
29909;BME280;36247;51.952;6.146;2023-05-20T06:12:49;102283.13;;;13.53;100.00
29909;BME280;36247;51.952;6.146;2023-05-20T06:15:18;102284.69;;;13.44;100.00
29909;BME280;36247;51.952;6.146;2023-05-20T06:17:44;102280.72;;;13.64;100.00
29909;BME280;36247;51.952;6.146;2023-05-20T06:20:11;102276.16;;;13.58;100.00
29909;BME280;36247;51.952;6.146;2023-05-20T06:22:36;102267.66;;;13.73;100.00
29909;BME280;36247;51.952;6.146;2023-05-20T06:25:07;102268.66;;;13.79;100.00
29909;BME280;36247;51.952;6.146;2023-05-20T06:27:35;102266.84;;;13.78;100.00
29909;BME280;36247;51.952;6.146;2023-05-20T06:30:00;102268.81;;;13.86;100.00
29909;BME280;36247;51.952;6.146;2023-05-20T06:32:27;102262.03;;;14.01;100.00
29909;BME280;36247;51.952;6.146;2023-05-20T06:34:55;102257.66;;;14.04;100.00
29909;BME280;36247;51.952;6.146;2023-05-20T06:37:21;102258.69;;;14.09;100.00
29909;BME280;36247;51.952;6.146;2023-05-20T06:39:49;102251.69;;;14.15;100.00
29909;BME280;36247;51.952;6.146;2023-05-20T06:42:19;102254.75;;;14.33;100.00
29909;BME280;36247;51.952;6.146;2023-05-20T06:44:49;102248.69;;;14.42;100.00
29909;BME280;36247;51.952;6.146;2023-05-20T06:47:39;102247.91;;;14.46;100.00
29909;BME280;36247;51.952;6.146;2023-05-20T06:50:07;102258.06;;;14.64;100.00
29909;BME280;36247;51.952;6.146;2023-05-20T06:52:37;102247.53;;;14.72;100.00
29909;BME280;36247;51.952;6.146;2023-05-20T06:55:09;102240.53;;;14.77;100.00
29909;BME280;36247;51.952;6.146;2023-05-20T06:57:35;102240.09;;;15.03;100.00
29909;BME280;36247;51.952;6.146;2023-05-20T07:00:02;102241.97;;;15.07;100.00
29909;BME280;36247;51.952;6.146;2023-05-20T07:02:36;102244.59;;;15.05;100.00
29909;BME280;36247;51.952;6.146;2023-05-20T07:05:02;102247.34;;;15.10;100.00
29909;BME280;36247;51.952;6.146;2023-05-20T07:07:28;102243.00;;;15.16;100.00
29909;BME280;36247;51.952;6.146;2023-05-20T07:09:54;102245.00;;;15.30;100.00
29909;BME280;36247;51.952;6.146;2023-05-20T07:12:20;102231.94;;;15.45;100.00
29909;BME280;36247;51.952;6.146;2023-05-20T07:14:52;102230.28;;;15.55;100.00
29909;BME280;36247;51.952;6.146;2023-05-20T07:17:18;102236.59;;;15.59;100.00
29909;BME280;36247;51.952;6.146;2023-05-20T07:19:45;102233.63;;;15.98;100.00
29909;BME280;36247;51.952;6.146;2023-05-20T07:22:11;102226.44;;;15.94;100.00
29909;BME280;36247;51.952;6.146;2023-05-20T07:25:09;102231.00;;;16.03;100.00
29909;BME280;36247;51.952;6.146;2023-05-20T07:27:36;102228.50;;;16.14;100.00
29909;BME280;36247;51.952;6.146;2023-05-20T07:30:02;102231.34;;;16.28;100.00
29909;BME280;36247;51.952;6.146;2023-05-20T07:32:31;102221.47;;;16.22;100.00
29909;BME280;36247;51.952;6.146;2023-05-20T07:34:56;102227.88;;;16.36;100.00
29909;BME280;36247;51.952;6.146;2023-05-20T07:37:22;102217.19;;;16.36;100.00
29909;BME280;36247;51.952;6.146;2023-05-20T07:39:48;102211.03;;;16.42;100.00
29909;BME280;36247;51.952;6.146;2023-05-20T07:42:14;102204.81;;;16.46;100.00
29909;BME280;36247;51.952;6.146;2023-05-20T07:44:43;102197.78;;;16.56;100.00
29909;BME280;36247;51.952;6.146;2023-05-20T07:47:12;102195.06;;;16.50;100.00
29909;BME280;36247;51.952;6.146;2023-05-20T07:49:38;102201.34;;;16.55;100.00
29909;BME280;36247;51.952;6.146;2023-05-20T07:52:06;102208.72;;;16.81;100.00
29909;BME280;36247;51.952;6.146;2023-05-20T07:54:36;102197.28;;;16.92;100.00
29909;BME280;36247;51.952;6.146;2023-05-20T07:57:06;102206.22;;;16.93;100.00
29909;BME280;36247;51.952;6.146;2023-05-20T07:59:32;102203.66;;;17.05;100.00
29909;BME280;36247;51.952;6.146;2023-05-20T08:01:59;102194.72;;;17.03;100.00
29909;BME280;36247;51.952;6.146;2023-05-20T08:04:25;102199.22;;;17.12;100.00
29909;BME280;36247;51.952;6.146;2023-05-20T08:06:53;102190.22;;;16.98;100.00
29909;BME280;36247;51.952;6.146;2023-05-20T08:09:35;102197.47;;;17.13;100.00
29909;BME280;36247;51.952;6.146;2023-05-20T08:12:02;102195.69;;;17.13;100.00
29909;BME280;36247;51.952;6.146;2023-05-20T08:14:35;102189.75;;;17.53;100.00
29909;BME280;36247;51.952;6.146;2023-05-20T08:17:02;102185.25;;;17.52;100.00
29909;BME280;36247;51.952;6.146;2023-05-20T08:19:34;102189.91;;;17.87;100.00
29909;BME280;36247;51.952;6.146;2023-05-20T08:22:00;102183.72;;;17.92;100.00
29909;BME280;36247;51.952;6.146;2023-05-20T08:24:26;102186.06;;;17.41;100.00
29909;BME280;36247;51.952;6.146;2023-05-20T08:26:53;102196.19;;;17.87;100.00
29909;BME280;36247;51.952;6.146;2023-05-20T08:29:21;102182.75;;;17.79;100.00
29909;BME280;36247;51.952;6.146;2023-05-20T08:31:47;102189.91;;;17.87;100.00
29909;BME280;36247;51.952;6.146;2023-05-20T08:34:15;102182.78;;;17.86;100.00
29909;BME280;36247;51.952;6.146;2023-05-20T08:36:42;102183.84;;;18.19;100.00
29909;BME280;36247;51.952;6.146;2023-05-20T08:39:09;102186.13;;;17.51;100.00
29909;BME280;36247;51.952;6.146;2023-05-20T08:41:40;102179.72;;;17.28;100.00
29909;BME280;36247;51.952;6.146;2023-05-20T08:44:06;102175.75;;;18.08;100.00
29909;BME280;36247;51.952;6.146;2023-05-20T08:46:36;102176.69;;;18.21;98.08
29909;BME280;36247;51.952;6.146;2023-05-20T08:49:06;102176.69;;;18.27;100.00
29909;BME280;36247;51.952;6.146;2023-05-20T08:51:32;102172.03;;;17.81;100.00
29909;BME280;36247;51.952;6.146;2023-05-20T08:54:01;102161.25;;;17.72;100.00
29909;BME280;36247;51.952;6.146;2023-05-20T08:56:27;102163.19;;;17.96;100.00
29909;BME280;36247;51.952;6.146;2023-05-20T08:58:53;102163.25;;;18.07;100.00
29909;BME280;36247;51.952;6.146;2023-05-20T09:01:23;102163.38;;;18.78;96.91
29909;BME280;36247;51.952;6.146;2023-05-20T09:03:52;102153.50;;;18.49;100.00
29909;BME280;36247;51.952;6.146;2023-05-20T09:06:18;102167.88;;;18.82;97.73
29909;BME280;36247;51.952;6.146;2023-05-20T09:08:49;102158.00;;;18.73;97.18
29909;BME280;36247;51.952;6.146;2023-05-20T09:11:20;102148.22;;;18.95;99.24
29909;BME280;36247;51.952;6.146;2023-05-20T09:13:49;102152.69;;;19.16;92.21
29909;BME280;36247;51.952;6.146;2023-05-20T09:16:14;102143.69;;;19.42;90.86
29909;BME280;36247;51.952;6.146;2023-05-20T09:18:41;102149.94;;;19.55;94.82
29909;BME280;36247;51.952;6.146;2023-05-20T09:21:09;102149.13;;;19.07;93.07
29909;BME280;36247;51.952;6.146;2023-05-20T09:23:37;102151.72;;;18.45;95.79
29909;BME280;36247;51.952;6.146;2023-05-20T09:26:06;102149.97;;;18.81;93.26
29909;BME280;36247;51.952;6.146;2023-05-20T09:28:32;102140.06;;;19.49;90.35
29909;BME280;36247;51.952;6.146;2023-05-20T09:30:58;102144.59;;;19.36;93.03
29909;BME280;36247;51.952;6.146;2023-05-20T09:33:30;102153.53;;;19.48;87.54
29909;BME280;36247;51.952;6.146;2023-05-20T09:36:07;102145.41;;;19.80;85.28
29909;BME280;36247;51.952;6.146;2023-05-20T09:38:36;102136.38;;;19.97;89.65
29909;BME280;36247;51.952;6.146;2023-05-20T09:41:12;102140.03;;;19.74;89.41
29909;BME280;36247;51.952;6.146;2023-05-20T09:43:40;102141.81;;;19.69;89.20
29909;BME280;36247;51.952;6.146;2023-05-20T09:46:06;102135.50;;;19.84;90.55
29909;BME280;36247;51.952;6.146;2023-05-20T09:48:35;102131.06;;;19.66;86.44
29909;BME280;36247;51.952;6.146;2023-05-20T09:51:06;102138.28;;;19.61;89.63
29909;BME280;36247;51.952;6.146;2023-05-20T09:53:32;102129.88;;;20.36;80.03
29909;BME280;36247;51.952;6.146;2023-05-20T09:56:00;102125.69;;;19.73;84.72
29909;BME280;36247;51.952;6.146;2023-05-20T09:58:26;102128.66;;;20.82;87.24
29909;BME280;36247;51.952;6.146;2023-05-20T10:00:56;102123.81;;;21.21;71.58
29909;BME280;36247;51.952;6.146;2023-05-20T10:03:22;102114.41;;;20.72;78.50
29909;BME280;36247;51.952;6.146;2023-05-20T10:17:20;102113.66;;;21.46;70.60
29909;BME280;36247;51.952;6.146;2023-05-20T10:19:58;102105.97;;;21.92;70.00
29909;BME280;36247;51.952;6.146;2023-05-20T10:22:28;102101.66;;;22.44;68.55
29909;BME280;36247;51.952;6.146;2023-05-20T10:25:10;102108.06;;;22.91;65.43
29909;BME280;36247;51.952;6.146;2023-05-20T10:27:44;102097.50;;;22.18;65.59
29909;BME280;36247;51.952;6.146;2023-05-20T10:30:21;102087.78;;;22.67;68.99
29909;BME280;36247;51.952;6.146;2023-05-20T10:32:57;102089.63;;;22.02;66.96
29909;BME280;36247;51.952;6.146;2023-05-20T10:35:26;102091.75;;;22.44;69.00
29909;BME280;36247;51.952;6.146;2023-05-20T10:38:09;102086.72;;;22.16;63.41
29909;BME280;36247;51.952;6.146;2023-05-20T10:40:35;102090.19;;;22.82;62.16
29909;BME280;36247;51.952;6.146;2023-05-20T10:43:08;102086.84;;;22.69;65.44
29909;BME280;36247;51.952;6.146;2023-05-20T10:45:49;102084.69;;;22.35;63.82
29909;BME280;36247;51.952;6.146;2023-05-20T10:48:27;102078.72;;;22.69;62.90
29909;BME280;36247;51.952;6.146;2023-05-20T10:50:59;102078.44;;;22.32;65.87
29909;BME280;36247;51.952;6.146;2023-05-20T10:53:28;102074.19;;;22.12;68.62
29909;BME280;36247;51.952;6.146;2023-05-20T10:55:55;102080.44;;;21.46;69.71
29909;BME280;36247;51.952;6.146;2023-05-20T10:58:22;102070.22;;;20.93;70.40
29909;BME280;36247;51.952;6.146;2023-05-20T11:00:53;102083.69;;;20.95;74.63
29909;BME280;36247;51.952;6.146;2023-05-20T11:03:20;102083.00;;;20.65;75.98
29909;BME280;36247;51.952;6.146;2023-05-20T11:05:47;102081.38;;;20.44;79.32
29909;BME280;36247;51.952;6.146;2023-05-20T11:08:13;102084.13;;;20.36;77.01
29909;BME280;36247;51.952;6.146;2023-05-20T11:10:40;102082.78;;;20.94;76.00
29909;BME280;36247;51.952;6.146;2023-05-20T11:13:07;102080.47;;;20.43;82.45
29909;BME280;36247;51.952;6.146;2023-05-20T11:15:35;102089.81;;;19.90;81.42
29909;BME280;36247;51.952;6.146;2023-05-20T11:18:10;102082.00;;;20.80;83.51
29909;BME280;36247;51.952;6.146;2023-05-20T11:20:36;102073.38;;;20.32;76.77
29909;BME280;36247;51.952;6.146;2023-05-20T11:23:04;102064.19;;;20.64;79.98
29909;BME280;36247;51.952;6.146;2023-05-20T11:25:32;102065.03;;;20.72;72.15
29909;BME280;36247;51.952;6.146;2023-05-20T11:27:58;102063.22;;;21.59;66.09
29909;BME280;36247;51.952;6.146;2023-05-20T11:30:24;102055.59;;;21.18;65.08
29909;BME280;36247;51.952;6.146;2023-05-20T11:33:00;102063.13;;;20.85;68.91
29909;BME280;36247;51.952;6.146;2023-05-20T11:35:27;102053.31;;;21.61;73.04
29909;BME280;36247;51.952;6.146;2023-05-20T11:38:00;102055.91;;;21.71;72.25
29909;BME280;36247;51.952;6.146;2023-05-20T11:40:42;102055.06;;;21.64;71.01
29909;BME280;36247;51.952;6.146;2023-05-20T11:43:10;102057.47;;;21.87;68.75
29909;BME280;36247;51.952;6.146;2023-05-20T11:45:42;102059.88;;;21.36;69.27
29909;BME280;36247;51.952;6.146;2023-05-20T11:48:09;102047.66;;;21.04;75.29
29909;BME280;36247;51.952;6.146;2023-05-20T11:50:38;102048.34;;;21.24;71.69
29909;BME280;36247;51.952;6.146;2023-05-20T11:53:07;102048.31;;;21.27;82.91
29909;BME280;36247;51.952;6.146;2023-05-20T11:56:04;102040.78;;;20.72;76.58
29909;BME280;36247;51.952;6.146;2023-05-20T11:58:31;102040.38;;;21.12;73.39
29909;BME280;36247;51.952;6.146;2023-05-20T12:00:58;102038.75;;;20.95;75.59
29909;BME280;36247;51.952;6.146;2023-05-20T12:03:24;102043.88;;;21.23;68.49
29909;BME280;36247;51.952;6.146;2023-05-20T12:05:50;102042.22;;;21.10;69.59
29909;BME280;36247;51.952;6.146;2023-05-20T12:08:18;102034.50;;;20.73;77.99
29909;BME280;36247;51.952;6.146;2023-05-20T12:10:43;102031.88;;;20.67;76.13
29909;BME280;36247;51.952;6.146;2023-05-20T12:13:09;102020.84;;;20.90;80.08
29909;BME280;36247;51.952;6.146;2023-05-20T12:15:40;102018.06;;;21.02;81.89
29909;BME280;36247;51.952;6.146;2023-05-20T12:18:07;102014.34;;;21.14;76.83
29909;BME280;36247;51.952;6.146;2023-05-20T12:20:36;102014.72;;;21.58;72.71
29909;BME280;36247;51.952;6.146;2023-05-20T12:23:02;101998.00;;;21.95;75.12
29909;BME280;36247;51.952;6.146;2023-05-20T12:25:32;101993.69;;;21.83;69.41
29909;BME280;36247;51.952;6.146;2023-05-20T12:27:58;102007.41;;;21.64;78.88
29909;BME280;36247;51.952;6.146;2023-05-20T12:30:23;102009.81;;;21.88;75.52
29909;BME280;36247;51.952;6.146;2023-05-20T12:32:50;101998.53;;;22.18;63.37
29909;BME280;36247;51.952;6.146;2023-05-20T12:35:34;102009.53;;;21.38;70.71
29909;BME280;36247;51.952;6.146;2023-05-20T12:38:00;101999.75;;;21.97;76.85
29909;BME280;36247;51.952;6.146;2023-05-20T12:40:26;101991.03;;;21.80;69.59
29909;BME280;36247;51.952;6.146;2023-05-20T12:42:51;101990.78;;;21.28;71.78
29909;BME280;36247;51.952;6.146;2023-05-20T12:45:18;101991.41;;;21.54;74.87
29909;BME280;36247;51.952;6.146;2023-05-20T12:47:43;101993.22;;;21.52;71.04
29909;BME280;36247;51.952;6.146;2023-05-20T12:50:09;101984.41;;;21.36;70.85
29909;BME280;36247;51.952;6.146;2023-05-20T12:52:36;101981.56;;;22.10;79.79
29909;BME280;36247;51.952;6.146;2023-05-20T12:55:05;101978.31;;;22.46;73.94
29909;BME280;36247;51.952;6.146;2023-05-20T12:57:47;101977.22;;;23.03;65.82